sensor_id;sensor_type;location;lat;lon;timestamp;temperature;humidity
12634;DHT22;6382;48.614;8.880;2022-12-11T00:00:22;-4.50;99.90
12634;DHT22;6382;48.614;8.880;2022-12-11T00:02:49;-4.50;99.90
12634;DHT22;6382;48.614;8.880;2022-12-11T00:05:15;-4.60;99.90
12634;DHT22;6382;48.614;8.880;2022-12-11T00:07:42;-4.70;99.90
12634;DHT22;6382;48.614;8.880;2022-12-11T00:10:09;-4.60;99.90
12634;DHT22;6382;48.614;8.880;2022-12-11T00:12:36;-4.60;99.90
12634;DHT22;6382;48.614;8.880;2022-12-11T00:15:03;-4.60;99.90
12634;DHT22;6382;48.614;8.880;2022-12-11T00:17:29;-4.70;99.90
12634;DHT22;6382;48.614;8.880;2022-12-11T00:19:56;-4.70;99.90
12634;DHT22;6382;48.614;8.880;2022-12-11T00:22:23;-4.70;99.90
12634;DHT22;6382;48.614;8.880;2022-12-11T00:24:50;-4.70;99.90
12634;DHT22;6382;48.614;8.880;2022-12-11T00:27:17;-4.80;99.90
12634;DHT22;6382;48.614;8.880;2022-12-11T00:29:43;-4.80;99.90
12634;DHT22;6382;48.614;8.880;2022-12-11T00:32:10;-4.80;99.90
12634;DHT22;6382;48.614;8.880;2022-12-11T00:34:37;-4.80;99.90
12634;DHT22;6382;48.614;8.880;2022-12-11T00:37:04;-4.90;99.90
12634;DHT22;6382;48.614;8.880;2022-12-11T00:39:30;-4.90;99.90
12634;DHT22;6382;48.614;8.880;2022-12-11T00:41:57;-4.80;99.90
12634;DHT22;6382;48.614;8.880;2022-12-11T00:44:24;-4.80;99.90
12634;DHT22;6382;48.614;8.880;2022-12-11T00:46:50;-2.90;99.90
12634;DHT22;6382;48.614;8.880;2022-12-11T00:49:17;-4.70;99.90
12634;DHT22;6382;48.614;8.880;2022-12-11T00:51:44;-4.80;99.90
12634;DHT22;6382;48.614;8.880;2022-12-11T00:54:11;-4.70;99.90
12634;DHT22;6382;48.614;8.880;2022-12-11T00:56:38;-4.70;99.90
12634;DHT22;6382;48.614;8.880;2022-12-11T00:59:04;-4.60;99.90
12634;DHT22;6382;48.614;8.880;2022-12-11T01:01:31;-4.60;99.90
12634;DHT22;6382;48.614;8.880;2022-12-11T01:03:58;-4.50;99.90
12634;DHT22;6382;48.614;8.880;2022-12-11T01:06:25;-4.40;99.90
12634;DHT22;6382;48.614;8.880;2022-12-11T01:08:53;-4.30;99.90
12634;DHT22;6382;48.614;8.880;2022-12-11T01:11:40;-4.30;99.90
12634;DHT22;6382;48.614;8.880;2022-12-11T01:14:08;-4.20;99.90
12634;DHT22;6382;48.614;8.880;2022-12-11T01:16:35;-4.10;99.90
12634;DHT22;6382;48.614;8.880;2022-12-11T01:19:02;-4.00;99.90
12634;DHT22;6382;48.614;8.880;2022-12-11T01:21:29;-3.90;99.90
12634;DHT22;6382;48.614;8.880;2022-12-11T01:23:56;-3.80;99.90
12634;DHT22;6382;48.614;8.880;2022-12-11T01:26:22;-3.80;99.90
12634;DHT22;6382;48.614;8.880;2022-12-11T01:28:50;-3.70;99.90
12634;DHT22;6382;48.614;8.880;2022-12-11T01:31:17;-3.60;99.90
12634;DHT22;6382;48.614;8.880;2022-12-11T01:33:44;-3.50;99.90
12634;DHT22;6382;48.614;8.880;2022-12-11T01:36:15;-3.50;99.90
12634;DHT22;6382;48.614;8.880;2022-12-11T01:38:44;-3.40;99.90
12634;DHT22;6382;48.614;8.880;2022-12-11T01:41:11;-5.30;99.90
12634;DHT22;6382;48.614;8.880;2022-12-11T01:46:23;-3.10;99.90
12634;DHT22;6382;48.614;8.880;2022-12-11T01:48:52;-3.00;99.90
12634;DHT22;6382;48.614;8.880;2022-12-11T01:51:19;-3.00;99.90
12634;DHT22;6382;48.614;8.880;2022-12-11T01:53:47;-3.00;99.90
12634;DHT22;6382;48.614;8.880;2022-12-11T01:56:16;-3.00;99.90
12634;DHT22;6382;48.614;8.880;2022-12-11T01:58:48;-3.10;99.90
12634;DHT22;6382;48.614;8.880;2022-12-11T02:01:19;-2.90;99.90
12634;DHT22;6382;48.614;8.880;2022-12-11T02:03:48;-2.90;99.90
12634;DHT22;6382;48.614;8.880;2022-12-11T02:06:29;-2.90;99.90
12634;DHT22;6382;48.614;8.880;2022-12-11T02:08:56;-2.80;99.90
12634;DHT22;6382;48.614;8.880;2022-12-11T02:11:23;-2.80;99.90
12634;DHT22;6382;48.614;8.880;2022-12-11T02:13:56;-0.50;99.90
12634;DHT22;6382;48.614;8.880;2022-12-11T02:16:49;-2.80;99.90
12634;DHT22;6382;48.614;8.880;2022-12-11T02:19:21;-2.80;99.90
12634;DHT22;6382;48.614;8.880;2022-12-11T02:21:54;-2.90;99.90
12634;DHT22;6382;48.614;8.880;2022-12-11T02:32:18;-2.90;99.90
12634;DHT22;6382;48.614;8.880;2022-12-11T02:35:30;-2.80;99.90
12634;DHT22;6382;48.614;8.880;2022-12-11T02:37:37;-2.70;99.90
12634;DHT22;6382;48.614;8.880;2022-12-11T02:40:05;-2.70;99.90
12634;DHT22;6382;48.614;8.880;2022-12-11T02:42:33;-2.70;99.90
12634;DHT22;6382;48.614;8.880;2022-12-11T02:45:01;-2.70;99.90
12634;DHT22;6382;48.614;8.880;2022-12-11T02:47:28;-2.60;99.90
12634;DHT22;6382;48.614;8.880;2022-12-11T02:49:57;-2.60;99.90
12634;DHT22;6382;48.614;8.880;2022-12-11T02:52:25;-2.50;99.90
12634;DHT22;6382;48.614;8.880;2022-12-11T02:54:53;-2.60;99.90
12634;DHT22;6382;48.614;8.880;2022-12-11T02:57:24;-2.70;99.90
12634;DHT22;6382;48.614;8.880;2022-12-11T02:59:53;-2.80;99.90
12634;DHT22;6382;48.614;8.880;2022-12-11T03:02:19;-2.90;99.90
12634;DHT22;6382;48.614;8.880;2022-12-11T03:04:46;-3.00;99.90
12634;DHT22;6382;48.614;8.880;2022-12-11T03:07:14;-3.10;99.90
12634;DHT22;6382;48.614;8.880;2022-12-11T03:09:43;-3.10;99.90
12634;DHT22;6382;48.614;8.880;2022-12-11T03:12:12;-3.10;99.90
12634;DHT22;6382;48.614;8.880;2022-12-11T03:14:40;-3.10;99.90
12634;DHT22;6382;48.614;8.880;2022-12-11T03:17:14;-3.10;99.90
12634;DHT22;6382;48.614;8.880;2022-12-11T03:22:33;-3.00;99.90
12634;DHT22;6382;48.614;8.880;2022-12-11T03:25:14;-3.10;99.90
12634;DHT22;6382;48.614;8.880;2022-12-11T03:27:43;-2.80;99.90
12634;DHT22;6382;48.614;8.880;2022-12-11T03:30:12;-3.10;99.90
12634;DHT22;6382;48.614;8.880;2022-12-11T03:32:41;-3.10;99.90
12634;DHT22;6382;48.614;8.880;2022-12-11T03:35:13;-3.10;99.90
12634;DHT22;6382;48.614;8.880;2022-12-11T03:37:41;-3.10;99.90
12634;DHT22;6382;48.614;8.880;2022-12-11T03:40:14;-3.00;99.90
12634;DHT22;6382;48.614;8.880;2022-12-11T03:42:42;-3.10;99.90
12634;DHT22;6382;48.614;8.880;2022-12-11T03:45:10;-3.10;99.90
12634;DHT22;6382;48.614;8.880;2022-12-11T03:47:38;-3.00;99.90
12634;DHT22;6382;48.614;8.880;2022-12-11T03:50:07;-3.00;99.90
12634;DHT22;6382;48.614;8.880;2022-12-11T03:52:35;-3.10;99.90
12634;DHT22;6382;48.614;8.880;2022-12-11T03:55:11;-3.20;99.90
12634;DHT22;6382;48.614;8.880;2022-12-11T03:57:38;-3.20;99.90
12634;DHT22;6382;48.614;8.880;2022-12-11T04:00:09;-3.20;99.90
12634;DHT22;6382;48.614;8.880;2022-12-11T04:02:36;-3.20;99.90
12634;DHT22;6382;48.614;8.880;2022-12-11T04:05:03;-3.30;99.90
12634;DHT22;6382;48.614;8.880;2022-12-11T04:07:30;-3.40;99.90
12634;DHT22;6382;48.614;8.880;2022-12-11T04:09:56;-3.40;99.90
12634;DHT22;6382;48.614;8.880;2022-12-11T04:12:23;-3.40;99.90
12634;DHT22;6382;48.614;8.880;2022-12-11T04:14:50;-3.40;99.90
12634;DHT22;6382;48.614;8.880;2022-12-11T04:17:32;-3.50;99.90
12634;DHT22;6382;48.614;8.880;2022-12-11T04:20:18;-3.50;99.90
12634;DHT22;6382;48.614;8.880;2022-12-11T04:23:04;-3.50;99.90
12634;DHT22;6382;48.614;8.880;2022-12-11T04:25:49;-3.40;99.90
12634;DHT22;6382;48.614;8.880;2022-12-11T04:28:16;-3.40;99.90
12634;DHT22;6382;48.614;8.880;2022-12-11T04:30:47;-3.40;99.90
12634;DHT22;6382;48.614;8.880;2022-12-11T04:33:13;-3.30;99.90
12634;DHT22;6382;48.614;8.880;2022-12-11T04:35:40;-3.20;99.90
12634;DHT22;6382;48.614;8.880;2022-12-11T04:38:07;-3.20;99.90
12634;DHT22;6382;48.614;8.880;2022-12-11T04:40:33;-3.20;99.90
12634;DHT22;6382;48.614;8.880;2022-12-11T04:43:00;-3.20;99.90
12634;DHT22;6382;48.614;8.880;2022-12-11T04:45:26;-3.20;99.90
12634;DHT22;6382;48.614;8.880;2022-12-11T04:47:53;-3.20;99.90
12634;DHT22;6382;48.614;8.880;2022-12-11T04:50:19;-3.00;99.90
12634;DHT22;6382;48.614;8.880;2022-12-11T04:52:46;-3.00;99.90
12634;DHT22;6382;48.614;8.880;2022-12-11T04:55:13;-2.90;99.90
12634;DHT22;6382;48.614;8.880;2022-12-11T04:57:40;-2.90;99.90
12634;DHT22;6382;48.614;8.880;2022-12-11T05:00:08;-3.00;99.90
12634;DHT22;6382;48.614;8.880;2022-12-11T05:02:35;-3.00;99.90
12634;DHT22;6382;48.614;8.880;2022-12-11T05:05:03;-3.20;99.90
12634;DHT22;6382;48.614;8.880;2022-12-11T05:07:30;-3.10;99.90
12634;DHT22;6382;48.614;8.880;2022-12-11T05:09:57;-3.00;99.90
12634;DHT22;6382;48.614;8.880;2022-12-11T05:12:23;-0.80;99.90
12634;DHT22;6382;48.614;8.880;2022-12-11T05:14:50;-3.00;99.90
12634;DHT22;6382;48.614;8.880;2022-12-11T05:17:17;-3.00;99.90
12634;DHT22;6382;48.614;8.880;2022-12-11T05:19:45;-3.00;99.90
12634;DHT22;6382;48.614;8.880;2022-12-11T05:22:12;-2.90;99.90
12634;DHT22;6382;48.614;8.880;2022-12-11T05:24:39;-2.90;99.90
12634;DHT22;6382;48.614;8.880;2022-12-11T05:27:05;-2.80;99.90
12634;DHT22;6382;48.614;8.880;2022-12-11T05:29:32;-2.70;99.90
12634;DHT22;6382;48.614;8.880;2022-12-11T05:31:59;-2.60;99.90
12634;DHT22;6382;48.614;8.880;2022-12-11T05:34:25;-2.60;99.90
12634;DHT22;6382;48.614;8.880;2022-12-11T05:36:52;-2.60;99.90
12634;DHT22;6382;48.614;8.880;2022-12-11T05:39:18;-2.70;99.90
12634;DHT22;6382;48.614;8.880;2022-12-11T05:41:45;-2.70;99.90
12634;DHT22;6382;48.614;8.880;2022-12-11T05:44:12;-2.70;99.90
12634;DHT22;6382;48.614;8.880;2022-12-11T05:46:38;-2.70;99.90
12634;DHT22;6382;48.614;8.880;2022-12-11T05:49:05;-2.70;99.90
12634;DHT22;6382;48.614;8.880;2022-12-11T05:51:32;-2.70;99.90
12634;DHT22;6382;48.614;8.880;2022-12-11T05:54:02;-2.70;99.90
12634;DHT22;6382;48.614;8.880;2022-12-11T05:56:30;-2.80;99.90
12634;DHT22;6382;48.614;8.880;2022-12-11T05:58:57;-2.80;99.90
12634;DHT22;6382;48.614;8.880;2022-12-11T06:03:51;-2.80;99.90
12634;DHT22;6382;48.614;8.880;2022-12-11T06:06:18;-2.80;99.90
12634;DHT22;6382;48.614;8.880;2022-12-11T06:08:45;-2.90;99.90
12634;DHT22;6382;48.614;8.880;2022-12-11T06:11:14;-2.90;99.90
12634;DHT22;6382;48.614;8.880;2022-12-11T06:13:49;-3.00;99.90
12634;DHT22;6382;48.614;8.880;2022-12-11T06:16:15;-3.00;99.90
12634;DHT22;6382;48.614;8.880;2022-12-11T06:18:43;-3.00;99.90
12634;DHT22;6382;48.614;8.880;2022-12-11T06:21:10;-3.10;99.90
12634;DHT22;6382;48.614;8.880;2022-12-11T06:23:37;-3.00;99.90
12634;DHT22;6382;48.614;8.880;2022-12-11T06:26:04;-3.20;99.90
12634;DHT22;6382;48.614;8.880;2022-12-11T06:28:31;-3.30;99.90
12634;DHT22;6382;48.614;8.880;2022-12-11T06:30:58;-3.50;99.90
12634;DHT22;6382;48.614;8.880;2022-12-11T06:33:24;-3.60;99.90
12634;DHT22;6382;48.614;8.880;2022-12-11T06:35:51;-2.60;99.90
12634;DHT22;6382;48.614;8.880;2022-12-11T06:38:19;-3.60;99.90
12634;DHT22;6382;48.614;8.880;2022-12-11T06:40:45;-3.60;99.90
12634;DHT22;6382;48.614;8.880;2022-12-11T06:43:19;-3.60;99.90
12634;DHT22;6382;48.614;8.880;2022-12-11T06:45:46;-3.60;99.90
12634;DHT22;6382;48.614;8.880;2022-12-11T06:48:12;-3.60;99.90
12634;DHT22;6382;48.614;8.880;2022-12-11T06:50:39;-3.60;99.90
12634;DHT22;6382;48.614;8.880;2022-12-11T06:53:06;-3.80;99.90
12634;DHT22;6382;48.614;8.880;2022-12-11T06:55:35;-3.90;99.90
12634;DHT22;6382;48.614;8.880;2022-12-11T06:58:02;-4.00;99.90
12634;DHT22;6382;48.614;8.880;2022-12-11T07:00:29;-4.10;99.90
12634;DHT22;6382;48.614;8.880;2022-12-11T07:02:56;-4.10;99.90
12634;DHT22;6382;48.614;8.880;2022-12-11T07:05:23;-4.10;99.90
12634;DHT22;6382;48.614;8.880;2022-12-11T07:07:51;-4.10;99.90
12634;DHT22;6382;48.614;8.880;2022-12-11T07:10:22;-4.10;99.90
12634;DHT22;6382;48.614;8.880;2022-12-11T07:12:49;-4.20;99.90
12634;DHT22;6382;48.614;8.880;2022-12-11T07:15:17;-3.90;99.90
12634;DHT22;6382;48.614;8.880;2022-12-11T07:17:44;-3.90;99.90
12634;DHT22;6382;48.614;8.880;2022-12-11T07:20:10;-3.90;99.90
12634;DHT22;6382;48.614;8.880;2022-12-11T07:22:37;-3.80;99.90
12634;DHT22;6382;48.614;8.880;2022-12-11T07:25:11;-3.80;99.90
12634;DHT22;6382;48.614;8.880;2022-12-11T07:27:38;-3.80;99.90
12634;DHT22;6382;48.614;8.880;2022-12-11T07:30:05;-3.70;99.90
12634;DHT22;6382;48.614;8.880;2022-12-11T07:32:32;-3.70;99.90
12634;DHT22;6382;48.614;8.880;2022-12-11T07:34:59;-3.60;99.90
12634;DHT22;6382;48.614;8.880;2022-12-11T07:37:25;-3.60;99.90
12634;DHT22;6382;48.614;8.880;2022-12-11T07:39:53;-3.60;99.90
12634;DHT22;6382;48.614;8.880;2022-12-11T07:42:20;-3.60;99.90
12634;DHT22;6382;48.614;8.880;2022-12-11T07:44:46;-3.60;99.90
12634;DHT22;6382;48.614;8.880;2022-12-11T07:47:13;-3.70;99.90
12634;DHT22;6382;48.614;8.880;2022-12-11T07:49:40;-3.80;99.90
12634;DHT22;6382;48.614;8.880;2022-12-11T07:52:07;-3.80;99.90
12634;DHT22;6382;48.614;8.880;2022-12-11T07:54:33;-3.80;99.90
12634;DHT22;6382;48.614;8.880;2022-12-11T07:57:00;-3.80;99.90
12634;DHT22;6382;48.614;8.880;2022-12-11T07:59:26;-3.80;99.90
12634;DHT22;6382;48.614;8.880;2022-12-11T08:01:53;-3.80;99.90
12634;DHT22;6382;48.614;8.880;2022-12-11T08:04:20;-3.80;99.90
12634;DHT22;6382;48.614;8.880;2022-12-11T08:06:46;-3.70;99.90
12634;DHT22;6382;48.614;8.880;2022-12-11T08:09:13;-3.70;99.90
12634;DHT22;6382;48.614;8.880;2022-12-11T08:11:47;-3.70;99.90
12634;DHT22;6382;48.614;8.880;2022-12-11T08:14:14;-2.80;99.90
12634;DHT22;6382;48.614;8.880;2022-12-11T08:16:40;-3.50;99.90
12634;DHT22;6382;48.614;8.880;2022-12-11T08:19:10;-3.50;99.90
12634;DHT22;6382;48.614;8.880;2022-12-11T08:21:37;-3.50;99.90
12634;DHT22;6382;48.614;8.880;2022-12-11T08:24:03;-3.50;99.90
12634;DHT22;6382;48.614;8.880;2022-12-11T08:26:30;-3.40;99.90
12634;DHT22;6382;48.614;8.880;2022-12-11T08:28:57;-3.40;99.90
12634;DHT22;6382;48.614;8.880;2022-12-11T08:31:24;-3.30;99.90
12634;DHT22;6382;48.614;8.880;2022-12-11T08:33:54;-3.20;99.90
12634;DHT22;6382;48.614;8.880;2022-12-11T08:36:22;-3.10;99.90
12634;DHT22;6382;48.614;8.880;2022-12-11T08:38:49;-3.00;99.90
12634;DHT22;6382;48.614;8.880;2022-12-11T08:41:17;-3.10;99.90
12634;DHT22;6382;48.614;8.880;2022-12-11T08:43:44;-2.90;99.90
12634;DHT22;6382;48.614;8.880;2022-12-11T08:46:11;-2.90;99.90
12634;DHT22;6382;48.614;8.880;2022-12-11T08:48:38;-2.90;99.90
12634;DHT22;6382;48.614;8.880;2022-12-11T08:51:07;-2.80;99.90
12634;DHT22;6382;48.614;8.880;2022-12-11T08:53:34;-2.90;99.90
12634;DHT22;6382;48.614;8.880;2022-12-11T08:56:01;-2.90;99.90
12634;DHT22;6382;48.614;8.880;2022-12-11T08:58:28;-2.90;99.90
12634;DHT22;6382;48.614;8.880;2022-12-11T09:00:55;-2.90;99.90
12634;DHT22;6382;48.614;8.880;2022-12-11T09:03:22;-2.90;99.90
12634;DHT22;6382;48.614;8.880;2022-12-11T09:05:49;-2.70;99.90
12634;DHT22;6382;48.614;8.880;2022-12-11T09:08:15;-2.60;99.90
12634;DHT22;6382;48.614;8.880;2022-12-11T09:10:42;-2.60;99.90
12634;DHT22;6382;48.614;8.880;2022-12-11T09:13:09;-2.50;99.90
12634;DHT22;6382;48.614;8.880;2022-12-11T09:15:38;-2.40;99.90
12634;DHT22;6382;48.614;8.880;2022-12-11T09:18:06;-2.30;99.90
12634;DHT22;6382;48.614;8.880;2022-12-11T09:20:32;-1.20;99.90
12634;DHT22;6382;48.614;8.880;2022-12-11T09:22:59;-2.10;99.90
12634;DHT22;6382;48.614;8.880;2022-12-11T09:25:26;-2.00;99.90
12634;DHT22;6382;48.614;8.880;2022-12-11T09:27:53;-1.90;99.90
12634;DHT22;6382;48.614;8.880;2022-12-11T09:30:19;-1.90;99.90
12634;DHT22;6382;48.614;8.880;2022-12-11T09:32:46;-1.90;99.90
12634;DHT22;6382;48.614;8.880;2022-12-11T09:35:13;-1.80;99.90
12634;DHT22;6382;48.614;8.880;2022-12-11T09:37:39;-1.80;99.90
12634;DHT22;6382;48.614;8.880;2022-12-11T09:40:07;-1.80;99.90
12634;DHT22;6382;48.614;8.880;2022-12-11T09:42:43;-1.70;99.90
12634;DHT22;6382;48.614;8.880;2022-12-11T09:45:13;-1.70;99.90
12634;DHT22;6382;48.614;8.880;2022-12-11T09:47:43;-1.70;99.90
12634;DHT22;6382;48.614;8.880;2022-12-11T09:50:12;-1.70;99.90
12634;DHT22;6382;48.614;8.880;2022-12-11T09:52:52;-1.60;99.90
12634;DHT22;6382;48.614;8.880;2022-12-11T09:55:21;-1.50;99.90
12634;DHT22;6382;48.614;8.880;2022-12-11T10:00:18;-1.40;99.90
12634;DHT22;6382;48.614;8.880;2022-12-11T10:10:40;-1.20;99.90
12634;DHT22;6382;48.614;8.880;2022-12-11T10:15:42;-1.10;99.90
12634;DHT22;6382;48.614;8.880;2022-12-11T10:18:14;-1.00;99.90
12634;DHT22;6382;48.614;8.880;2022-12-11T10:20:43;-1.00;99.90
12634;DHT22;6382;48.614;8.880;2022-12-11T10:23:15;-0.90;99.90
12634;DHT22;6382;48.614;8.880;2022-12-11T10:28:28;-0.80;99.90
12634;DHT22;6382;48.614;8.880;2022-12-11T10:33:31;-0.70;99.90
12634;DHT22;6382;48.614;8.880;2022-12-11T10:35:58;-0.70;99.90
12634;DHT22;6382;48.614;8.880;2022-12-11T10:38:33;-0.70;99.90
12634;DHT22;6382;48.614;8.880;2022-12-11T10:41:01;-0.70;99.90
12634;DHT22;6382;48.614;8.880;2022-12-11T10:43:32;-0.60;99.90
12634;DHT22;6382;48.614;8.880;2022-12-11T10:45:59;-0.60;99.90
12634;DHT22;6382;48.614;8.880;2022-12-11T10:48:26;-0.60;99.90
12634;DHT22;6382;48.614;8.880;2022-12-11T10:51:03;-0.60;99.90
12634;DHT22;6382;48.614;8.880;2022-12-11T10:53:30;-0.60;99.90
12634;DHT22;6382;48.614;8.880;2022-12-11T10:55:58;-0.50;99.90
12634;DHT22;6382;48.614;8.880;2022-12-11T10:58:27;-0.60;99.90
12634;DHT22;6382;48.614;8.880;2022-12-11T11:01:37;-0.60;99.90
12634;DHT22;6382;48.614;8.880;2022-12-11T11:06:40;-0.60;99.90
12634;DHT22;6382;48.614;8.880;2022-12-11T11:09:25;-0.60;99.90
12634;DHT22;6382;48.614;8.880;2022-12-11T11:11:53;-0.60;99.90
12634;DHT22;6382;48.614;8.880;2022-12-11T11:14:20;-0.40;99.90
12634;DHT22;6382;48.614;8.880;2022-12-11T11:16:48;-0.40;99.90
12634;DHT22;6382;48.614;8.880;2022-12-11T11:19:17;-0.30;99.90
12634;DHT22;6382;48.614;8.880;2022-12-11T11:21:48;-0.30;99.90
12634;DHT22;6382;48.614;8.880;2022-12-11T11:24:58;-0.30;99.90
12634;DHT22;6382;48.614;8.880;2022-12-11T11:27:22;-0.30;99.90
12634;DHT22;6382;48.614;8.880;2022-12-11T11:29:53;-0.30;99.90
12634;DHT22;6382;48.614;8.880;2022-12-11T11:34:50;-0.30;99.90
12634;DHT22;6382;48.614;8.880;2022-12-11T11:37:21;-0.20;99.90
12634;DHT22;6382;48.614;8.880;2022-12-11T11:39:48;-0.20;99.90
12634;DHT22;6382;48.614;8.880;2022-12-11T11:42:20;-0.20;99.90
12634;DHT22;6382;48.614;8.880;2022-12-11T11:45:01;-0.30;99.90
12634;DHT22;6382;48.614;8.880;2022-12-11T11:47:36;-0.20;99.90
12634;DHT22;6382;48.614;8.880;2022-12-11T11:50:07;-0.20;99.90
12634;DHT22;6382;48.614;8.880;2022-12-11T11:52:41;-0.20;99.90
12634;DHT22;6382;48.614;8.880;2022-12-11T11:55:13;-0.20;99.90
12634;DHT22;6382;48.614;8.880;2022-12-11T11:57:55;-0.20;99.90
12634;DHT22;6382;48.614;8.880;2022-12-11T12:00:23;-0.20;99.90
12634;DHT22;6382;48.614;8.880;2022-12-11T12:02:59;-0.20;99.90
12634;DHT22;6382;48.614;8.880;2022-12-11T12:05:38;-0.10;99.90
12634;DHT22;6382;48.614;8.880;2022-12-11T12:10:56;-0.10;99.90
12634;DHT22;6382;48.614;8.880;2022-12-11T12:13:33;0.00;99.90
12634;DHT22;6382;48.614;8.880;2022-12-11T12:16:36;0.00;99.90
12634;DHT22;6382;48.614;8.880;2022-12-11T12:21:48;0.10;99.90
12634;DHT22;6382;48.614;8.880;2022-12-11T12:24:28;0.10;99.90
12634;DHT22;6382;48.614;8.880;2022-12-11T12:27:12;0.10;99.90
12634;DHT22;6382;48.614;8.880;2022-12-11T12:30:04;0.10;99.90
12634;DHT22;6382;48.614;8.880;2022-12-11T12:32:38;0.00;99.90
12634;DHT22;6382;48.614;8.880;2022-12-11T12:37:38;0.10;99.90
12634;DHT22;6382;48.614;8.880;2022-12-11T12:40:49;0.10;99.90
12634;DHT22;6382;48.614;8.880;2022-12-11T12:48:28;0.10;99.90
12634;DHT22;6382;48.614;8.880;2022-12-11T12:50:54;0.10;99.90
12634;DHT22;6382;48.614;8.880;2022-12-11T12:53:22;0.00;99.90
12634;DHT22;6382;48.614;8.880;2022-12-11T12:55:49;0.10;99.90
12634;DHT22;6382;48.614;8.880;2022-12-11T13:00:53;0.10;99.90
12634;DHT22;6382;48.614;8.880;2022-12-11T13:03:21;0.10;99.90
12634;DHT22;6382;48.614;8.880;2022-12-11T13:05:56;0.10;99.90
12634;DHT22;6382;48.614;8.880;2022-12-11T13:08:26;0.10;99.90
12634;DHT22;6382;48.614;8.880;2022-12-11T13:11:07;0.00;99.90
12634;DHT22;6382;48.614;8.880;2022-12-11T13:13:36;0.00;99.90
12634;DHT22;6382;48.614;8.880;2022-12-11T13:16:07;0.10;99.90
12634;DHT22;6382;48.614;8.880;2022-12-11T13:18:36;0.10;99.90
12634;DHT22;6382;48.614;8.880;2022-12-11T13:21:23;0.10;99.90
12634;DHT22;6382;48.614;8.880;2022-12-11T13:23:50;0.20;99.90
12634;DHT22;6382;48.614;8.880;2022-12-11T13:26:32;0.20;99.90
12634;DHT22;6382;48.614;8.880;2022-12-11T13:28:59;0.30;99.90
12634;DHT22;6382;48.614;8.880;2022-12-11T13:33:53;0.40;99.90
12634;DHT22;6382;48.614;8.880;2022-12-11T13:36:36;0.40;99.90
12634;DHT22;6382;48.614;8.880;2022-12-11T13:39:04;0.30;99.90
12634;DHT22;6382;48.614;8.880;2022-12-11T13:41:32;0.30;99.90
12634;DHT22;6382;48.614;8.880;2022-12-11T13:44:00;0.30;99.90
12634;DHT22;6382;48.614;8.880;2022-12-11T13:46:28;0.20;99.90
12634;DHT22;6382;48.614;8.880;2022-12-11T13:48:58;0.20;99.90
12634;DHT22;6382;48.614;8.880;2022-12-11T13:51:30;0.10;99.90
12634;DHT22;6382;48.614;8.880;2022-12-11T13:54:01;0.10;99.90
12634;DHT22;6382;48.614;8.880;2022-12-11T13:56:27;0.10;99.90
12634;DHT22;6382;48.614;8.880;2022-12-11T13:58:54;0.10;99.90
12634;DHT22;6382;48.614;8.880;2022-12-11T14:01:22;0.10;99.90
12634;DHT22;6382;48.614;8.880;2022-12-11T14:03:54;0.10;99.90
12634;DHT22;6382;48.614;8.880;2022-12-11T14:06:21;0.10;99.90
12634;DHT22;6382;48.614;8.880;2022-12-11T14:08:50;0.10;99.90
12634;DHT22;6382;48.614;8.880;2022-12-11T14:11:22;0.00;99.90
12634;DHT22;6382;48.614;8.880;2022-12-11T14:13:49;-0.10;99.90
12634;DHT22;6382;48.614;8.880;2022-12-11T14:16:20;0.00;99.90
12634;DHT22;6382;48.614;8.880;2022-12-11T14:18:48;-0.10;99.90
12634;DHT22;6382;48.614;8.880;2022-12-11T14:21:16;-0.10;99.90
12634;DHT22;6382;48.614;8.880;2022-12-11T14:23:49;0.00;99.90
12634;DHT22;6382;48.614;8.880;2022-12-11T14:26:19;-0.20;99.90
12634;DHT22;6382;48.614;8.880;2022-12-11T14:28:46;-0.20;99.90
12634;DHT22;6382;48.614;8.880;2022-12-11T14:31:30;-0.20;99.90
12634;DHT22;6382;48.614;8.880;2022-12-11T14:34:01;-0.20;99.90
12634;DHT22;6382;48.614;8.880;2022-12-11T14:36:28;-0.20;99.90
12634;DHT22;6382;48.614;8.880;2022-12-11T14:38:56;-0.10;99.90
12634;DHT22;6382;48.614;8.880;2022-12-11T14:41:29;-0.30;99.90
12634;DHT22;6382;48.614;8.880;2022-12-11T14:43:57;-0.40;99.90
12634;DHT22;6382;48.614;8.880;2022-12-11T14:46:28;-0.50;99.90
12634;DHT22;6382;48.614;8.880;2022-12-11T14:48:59;-0.50;99.90
12634;DHT22;6382;48.614;8.880;2022-12-11T14:51:28;-0.60;99.90
12634;DHT22;6382;48.614;8.880;2022-12-11T14:53:56;-0.60;99.90
12634;DHT22;6382;48.614;8.880;2022-12-11T14:56:24;-0.60;99.90
12634;DHT22;6382;48.614;8.880;2022-12-11T14:58:56;-0.70;99.90
12634;DHT22;6382;48.614;8.880;2022-12-11T15:01:28;-0.70;99.90
12634;DHT22;6382;48.614;8.880;2022-12-11T15:06:43;-0.70;99.90
12634;DHT22;6382;48.614;8.880;2022-12-11T15:11:46;-0.80;99.90
12634;DHT22;6382;48.614;8.880;2022-12-11T15:14:14;-0.80;99.90
12634;DHT22;6382;48.614;8.880;2022-12-11T15:16:41;-0.80;99.90
12634;DHT22;6382;48.614;8.880;2022-12-11T15:19:15;-0.90;99.90
12634;DHT22;6382;48.614;8.880;2022-12-11T15:21:43;-0.90;99.90
12634;DHT22;6382;48.614;8.880;2022-12-11T15:24:20;-1.00;99.90
12634;DHT22;6382;48.614;8.880;2022-12-11T15:26:48;-1.00;99.90
12634;DHT22;6382;48.614;8.880;2022-12-11T15:34:42;-1.10;99.90
12634;DHT22;6382;48.614;8.880;2022-12-11T15:39:45;-1.10;99.90
12634;DHT22;6382;48.614;8.880;2022-12-11T15:42:17;-1.10;99.90
12634;DHT22;6382;48.614;8.880;2022-12-11T15:44:44;-1.00;99.90
12634;DHT22;6382;48.614;8.880;2022-12-11T15:47:14;-0.90;99.90
12634;DHT22;6382;48.614;8.880;2022-12-11T15:49:41;-1.00;99.90
12634;DHT22;6382;48.614;8.880;2022-12-11T15:52:07;-0.90;99.90
12634;DHT22;6382;48.614;8.880;2022-12-11T15:54:34;-0.80;99.90
12634;DHT22;6382;48.614;8.880;2022-12-11T15:57:02;-0.80;99.90
12634;DHT22;6382;48.614;8.880;2022-12-11T15:59:29;-0.80;99.90
12634;DHT22;6382;48.614;8.880;2022-12-11T16:01:56;-0.90;99.90
12634;DHT22;6382;48.614;8.880;2022-12-11T16:04:23;-0.80;99.90
12634;DHT22;6382;48.614;8.880;2022-12-11T16:06:49;-1.00;99.90
12634;DHT22;6382;48.614;8.880;2022-12-11T16:09:16;-1.00;99.90
12634;DHT22;6382;48.614;8.880;2022-12-11T16:11:43;-1.00;99.90
12634;DHT22;6382;48.614;8.880;2022-12-11T16:14:09;-1.10;99.90
12634;DHT22;6382;48.614;8.880;2022-12-11T16:16:36;-1.10;99.90
12634;DHT22;6382;48.614;8.880;2022-12-11T16:19:03;-1.10;99.90
12634;DHT22;6382;48.614;8.880;2022-12-11T16:21:29;-1.10;99.90
12634;DHT22;6382;48.614;8.880;2022-12-11T16:23:56;-1.10;99.90
12634;DHT22;6382;48.614;8.880;2022-12-11T16:26:23;-1.10;99.90
12634;DHT22;6382;48.614;8.880;2022-12-11T16:28:49;-1.20;99.90
12634;DHT22;6382;48.614;8.880;2022-12-11T16:31:16;-1.20;99.90
12634;DHT22;6382;48.614;8.880;2022-12-11T16:33:43;-1.20;99.90
12634;DHT22;6382;48.614;8.880;2022-12-11T16:36:13;-1.20;99.90
12634;DHT22;6382;48.614;8.880;2022-12-11T16:38:43;-1.30;99.90
12634;DHT22;6382;48.614;8.880;2022-12-11T16:41:18;-1.30;99.90
12634;DHT22;6382;48.614;8.880;2022-12-11T16:43:45;-1.20;99.90
12634;DHT22;6382;48.614;8.880;2022-12-11T16:46:11;-2.00;99.90
12634;DHT22;6382;48.614;8.880;2022-12-11T16:48:38;-1.20;99.90
12634;DHT22;6382;48.614;8.880;2022-12-11T16:51:05;-1.30;99.90
12634;DHT22;6382;48.614;8.880;2022-12-11T16:53:31;-1.40;99.90
12634;DHT22;6382;48.614;8.880;2022-12-11T16:55:58;-1.40;99.90
12634;DHT22;6382;48.614;8.880;2022-12-11T16:58:25;0.20;99.90
12634;DHT22;6382;48.614;8.880;2022-12-11T17:00:51;0.00;99.90
12634;DHT22;6382;48.614;8.880;2022-12-11T17:03:18;-1.50;99.90
12634;DHT22;6382;48.614;8.880;2022-12-11T17:05:45;-1.50;99.90
12634;DHT22;6382;48.614;8.880;2022-12-11T17:08:12;-1.60;99.90
12634;DHT22;6382;48.614;8.880;2022-12-11T17:10:39;-1.60;99.90